createdAt,value
2019-03-22T00:03:26.641Z,44.57
2019-03-22T00:08:29.312Z,43.67
2019-03-22T00:13:32.001Z,43.33
2019-03-22T00:18:36.404Z,44.57
2019-03-22T00:23:38.979Z,42.47
2019-03-22T00:28:41.832Z,42.67
2019-03-22T00:33:44.454Z,44.17
2019-03-22T00:38:47.253Z,48.17
2019-03-22T00:43:49.804Z,46.80
2019-03-22T00:48:52.405Z,47.03
2019-03-22T00:53:54.985Z,46.60
2019-03-22T00:59:00.459Z,47.33
2019-03-22T01:04:03.084Z,47.63
2019-03-22T01:09:05.900Z,49.30
2019-03-22T01:14:08.459Z,49.77
2019-03-22T01:19:11.084Z,53.83
2019-03-22T01:24:13.858Z,53.23
2019-03-22T01:29:19.270Z,51.07
2019-03-22T01:34:21.836Z,51.33
2019-03-22T01:39:27.307Z,53.00
2019-03-22T01:44:29.832Z,53.37
2019-03-22T01:49:32.365Z,54.03
2019-03-22T01:54:34.958Z,58.97
2019-03-22T01:59:37.730Z,52.73
2019-03-22T02:04:40.474Z,62.57
2019-03-22T02:09:44.531Z,53.77
2019-03-22T02:14:47.082Z,53.50
2019-03-22T02:19:51.462Z,57.90
2019-03-22T02:24:54.001Z,54.37
2019-03-22T02:29:56.645Z,53.90
2019-03-22T02:34:59.219Z,53.67
2019-03-22T02:40:02.155Z,70.30
2019-03-22T02:45:06.392Z,66.90
2019-03-22T02:50:18.161Z,55.33
2019-03-22T02:55:18.979Z,66.70
2019-03-22T03:00:21.803Z,65.17
2019-03-22T03:05:24.356Z,61.93
2019-03-22T03:10:29.040Z,57.03
2019-03-22T03:15:31.576Z,52.90
2019-03-22T03:20:34.235Z,50.07
2019-03-22T03:25:36.783Z,53.63
2019-03-22T03:30:39.436Z,65.13
2019-03-22T03:35:41.975Z,47.40
2019-03-22T03:40:44.512Z,52.03
2019-03-22T03:45:47.092Z,48.27
2019-03-22T03:50:49.648Z,43.73
2019-03-22T03:55:52.277Z,46.27
2019-03-22T04:00:57.803Z,47.23
2019-03-22T04:06:00.387Z,46.43
2019-03-22T04:11:03.006Z,46.47
2019-03-22T04:16:05.543Z,48.80
2019-03-22T04:21:10.009Z,53.97
2019-03-22T04:26:12.560Z,56.43
2019-03-22T04:31:15.251Z,57.93
2019-03-22T04:36:20.224Z,57.47
2019-03-22T04:41:22.773Z,49.90
2019-03-22T04:46:27.090Z,51.20
2019-03-22T04:51:30.241Z,58.10
2019-03-22T04:56:35.885Z,60.63
2019-03-22T05:01:41.378Z,49.37
2019-03-22T05:06:45.327Z,54.03
2019-03-22T05:11:48.606Z,54.53
2019-03-22T05:16:54.001Z,51.80
2019-03-22T05:22:01.479Z,55.10
2019-03-22T05:27:05.916Z,52.57
2019-03-22T05:32:10.730Z,53.90
2019-03-22T05:37:15.701Z,54.17
2019-03-22T05:42:18.295Z,66.07
2019-03-22T05:47:21.153Z,64.90
2019-03-22T05:52:23.739Z,67.50
2019-03-22T05:57:26.433Z,56.17
2019-03-22T06:02:29.003Z,53.93
2019-03-22T06:07:31.575Z,55.00
2019-03-22T06:12:34.134Z,69.30
2019-03-22T06:17:36.704Z,68.90
2019-03-22T06:22:39.302Z,67.47
2019-03-22T06:27:41.957Z,72.43
2019-03-22T06:32:44.572Z,62.43
2019-03-22T06:37:47.403Z,57.50
2019-03-22T06:42:50.039Z,58.90
2019-03-22T06:47:52.603Z,56.30
2019-03-22T06:52:55.364Z,54.70
2019-03-22T06:57:58.089Z,61.23
2019-03-22T07:03:00.645Z,61.50
2019-03-22T07:08:03.335Z,57.10
2019-03-22T07:13:05.884Z,59.40
2019-03-22T07:18:08.483Z,61.80
2019-03-22T07:23:14.097Z,56.30
2019-03-22T07:28:16.784Z,56.77
2019-03-22T07:33:19.421Z,59.03
2019-03-22T07:38:23.303Z,60.83
2019-03-22T07:43:26.057Z,56.77
2019-03-22T07:48:30.005Z,57.97
2019-03-22T07:53:32.712Z,57.60
2019-03-22T07:58:35.269Z,58.27
2019-03-22T08:03:37.887Z,55.07
2019-03-22T08:08:40.472Z,57.00
2019-03-22T08:13:43.011Z,57.10
2019-03-22T08:18:45.546Z,54.00
2019-03-22T08:23:48.070Z,55.13
2019-03-22T08:28:50.667Z,60.10
2019-03-22T08:33:53.220Z,60.60
2019-03-22T08:38:55.857Z,58.03
2019-03-22T08:43:58.528Z,54.17
2019-03-22T08:49:01.419Z,53.87
2019-03-22T08:54:03.992Z,51.93
2019-03-22T08:59:06.884Z,54.40
2019-03-22T09:04:09.587Z,55.07
2019-03-22T09:09:12.346Z,54.80
2019-03-22T09:14:14.934Z,51.13
2019-03-22T09:19:17.469Z,53.90
2019-03-22T09:24:23.035Z,52.53
2019-03-22T09:29:25.805Z,55.47
2019-03-22T09:34:33.489Z,55.03
2019-03-22T09:39:35.690Z,53.97
2019-03-22T09:44:43.121Z,55.03
2019-03-22T09:49:43.067Z,55.13
2019-03-22T09:54:45.577Z,56.90
2019-03-22T09:59:48.454Z,60.77
2019-03-22T10:04:50.965Z,55.83
2019-03-22T10:09:56.177Z,59.83
2019-03-22T10:14:58.844Z,61.73
2019-03-22T10:20:01.658Z,58.60
2019-03-22T10:25:06.187Z,60.27
2019-03-22T10:30:09.548Z,64.83
2019-03-22T10:35:25.028Z,64.40
2019-03-22T10:40:16.990Z,61.07
2019-03-22T10:45:22.132Z,64.27
2019-03-22T10:50:24.925Z,59.10
2019-03-22T10:55:30.412Z,65.07
2019-03-22T11:00:32.483Z,65.77
2019-03-22T11:05:35.074Z,66.43
2019-03-22T11:10:39.531Z,65.23
2019-03-22T11:15:48.445Z,63.13
2019-03-22T11:20:46.892Z,65.07
2019-03-22T11:25:49.463Z,70.03
2019-03-22T11:31:04.466Z,65.67
2019-03-22T11:36:00.114Z,66.10
2019-03-22T11:41:02.775Z,66.00
2019-03-22T11:46:05.300Z,64.83
2019-03-22T11:51:07.899Z,62.20
2019-03-22T11:56:12.344Z,61.77
2019-03-22T12:01:20.260Z,62.13
2019-03-22T12:06:19.489Z,58.40
2019-03-22T12:11:22.326Z,54.77
2019-03-22T12:16:27.670Z,55.87
2019-03-22T12:21:33.067Z,51.20
2019-03-22T12:26:35.676Z,46.20
2019-03-22T12:31:39.535Z,50.83
2019-03-22T12:36:42.490Z,51.23
2019-03-22T12:41:45.360Z,46.90
2019-03-22T12:46:49.268Z,44.97
2019-03-22T12:51:58.437Z,47.27
2019-03-22T12:57:02.132Z,43.23
2019-03-22T13:02:04.789Z,44.07
2019-03-22T13:07:12.439Z,40.63
2019-03-22T13:12:15.663Z,42.00
2019-03-22T13:17:21.793Z,40.80
2019-03-22T13:22:24.487Z,42.10
2019-03-22T13:27:27.095Z,41.37
2019-03-22T13:32:31.223Z,39.37
2019-03-22T13:37:33.895Z,39.90
2019-03-22T13:42:36.445Z,35.63
2019-03-22T13:47:39.367Z,35.40
2019-03-22T13:52:42.112Z,32.43
2019-03-22T13:57:44.792Z,33.33
2019-03-22T14:02:47.530Z,34.30
2019-03-22T14:07:50.589Z,29.30
2019-03-22T14:12:53.147Z,32.17
2019-03-22T14:17:57.218Z,29.27
2019-03-22T14:22:59.758Z,30.83
2019-03-22T14:28:02.625Z,30.43
2019-03-22T14:33:13.400Z,26.30
2019-03-22T14:38:12.199Z,27.07
2019-03-22T14:43:17.571Z,28.73
2019-03-22T14:48:21.466Z,26.10
2019-03-22T14:53:27.143Z,28.70
2019-03-22T14:58:34.459Z,27.57
2019-03-22T15:03:40.103Z,27.97
2019-03-22T15:08:43.041Z,26.77
2019-03-22T15:13:53.455Z,27.60
2019-03-22T15:19:14.395Z,27.33
2019-03-22T15:24:35.829Z,26.60
2019-03-22T15:30:03.725Z,29.00
2019-03-22T15:35:31.315Z,25.63
2019-03-22T15:40:37.408Z,27.20
2019-03-22T15:45:39.969Z,26.70
2019-03-22T15:50:42.521Z,27.20
2019-03-22T15:55:45.135Z,28.03
2019-03-22T16:00:47.854Z,27.43
2019-03-22T16:05:53.315Z,28.03
2019-03-22T16:10:57.912Z,27.07
2019-03-22T16:16:00.458Z,27.93
2019-03-22T16:21:03.301Z,28.57
2019-03-22T16:26:05.893Z,29.17
2019-03-22T16:31:08.653Z,29.13
2019-03-22T16:36:11.211Z,29.67
2019-03-22T16:41:13.798Z,30.60
2019-03-22T16:46:16.371Z,31.13
2019-03-22T16:51:18.963Z,30.67
2019-03-22T16:56:21.518Z,32.37
2019-03-22T17:01:24.326Z,31.73
2019-03-22T17:06:28.437Z,30.17
2019-03-22T17:11:31.183Z,32.20
2019-03-22T17:16:33.728Z,28.80
2019-03-22T17:21:39.574Z,29.20
2019-03-22T17:26:42.454Z,28.30
2019-03-22T17:31:45.307Z,27.63
2019-03-22T17:36:47.844Z,28.40
2019-03-22T17:41:50.402Z,27.30
2019-03-22T17:46:52.941Z,28.87
2019-03-22T17:51:58.727Z,37.77
2019-03-22T17:57:01.290Z,43.87
2019-03-22T18:02:04.046Z,46.10
2019-03-22T18:07:12.653Z,51.07
2019-03-22T18:12:15.240Z,52.23
2019-03-22T18:17:23.113Z,55.53
2019-03-22T18:22:25.759Z,54.50
2019-03-22T18:27:30.446Z,54.60
2019-03-22T18:32:33.006Z,54.47
2019-03-22T18:37:35.671Z,54.43
2019-03-22T18:42:38.215Z,53.03
2019-03-22T18:47:41.732Z,52.83
2019-03-22T18:52:44.276Z,50.97
2019-03-22T18:57:50.803Z,49.57
2019-03-22T19:02:53.438Z,46.57
2019-03-22T19:07:58.509Z,47.57
2019-03-22T19:13:01.055Z,44.17
2019-03-22T19:18:04.003Z,45.43
2019-03-22T19:23:06.574Z,45.00
2019-03-22T19:28:09.243Z,45.30
2019-03-22T19:33:14.045Z,45.50
2019-03-22T19:38:16.592Z,45.00
2019-03-22T19:43:19.154Z,46.83
2019-03-22T19:48:22.023Z,48.13
2019-03-22T19:53:25.056Z,49.77
2019-03-22T19:58:32.119Z,49.60
2019-03-22T20:03:34.893Z,53.43
2019-03-22T20:08:37.884Z,49.23
2019-03-22T20:13:40.456Z,51.50
2019-03-22T20:18:43.151Z,49.37
2019-03-22T20:23:53.318Z,52.00
2019-03-22T20:28:50.553Z,53.23
2019-03-22T20:33:53.185Z,55.37
2019-03-22T20:38:58.168Z,54.97
2019-03-22T20:44:00.815Z,56.87
2019-03-22T20:49:05.259Z,59.43
2019-03-22T20:54:07.812Z,60.13
2019-03-22T20:59:10.717Z,59.20
2019-03-22T21:04:13.582Z,60.33
2019-03-22T21:09:21.829Z,62.40
2019-03-22T21:14:26.149Z,62.77
2019-03-22T21:19:32.647Z,60.47
2019-03-22T21:24:35.982Z,60.47
2019-03-22T21:29:44.312Z,60.40
2019-03-22T21:34:45.453Z,60.57
2019-03-22T21:39:48.139Z,54.40
2019-03-22T21:44:51.581Z,54.07
2019-03-22T21:49:54.988Z,52.90
2019-03-22T21:54:57.508Z,56.50
2019-03-22T22:00:00.390Z,57.20
2019-03-22T22:05:03.319Z,56.53
2019-03-22T22:10:09.016Z,58.63
2019-03-22T22:15:13.391Z,55.80
2019-03-22T22:20:16.155Z,56.23
2019-03-22T22:25:18.709Z,59.60
2019-03-22T22:30:21.929Z,59.30
2019-03-22T22:35:26.633Z,62.67
2019-03-22T22:40:29.201Z,59.57
2019-03-22T22:45:31.817Z,61.60
2019-03-22T22:50:35.009Z,61.63
2019-03-22T22:55:37.953Z,58.10
2019-03-22T23:00:41.010Z,61.87
2019-03-22T23:05:43.728Z,59.40
2019-03-22T23:10:51.476Z,59.10
2019-03-22T23:15:58.810Z,51.20
2019-03-22T23:21:03.703Z,49.03
2019-03-22T23:26:06.257Z,46.80
2019-03-22T23:31:10.287Z,45.63
2019-03-22T23:36:20.288Z,46.47
2019-03-22T23:41:17.331Z,47.87
2019-03-22T23:46:19.859Z,48.23
2019-03-22T23:51:22.536Z,47.73
2019-03-22T23:56:25.079Z,48.73
